This is the latest recevied weather packets stored in our database for station/object DJ2RF. If no packets are shown the sender has not sent any weather packets the latest 1 day(s).
| Time | Temp. | Humidity | Pressure | Rain* | Wind** | Luminosity | Snow |
|---|---|---|---|---|---|---|---|
| 1778087641 | 12.78° C | 81% | 1008.3 hPa | 1.27 mm | - | - | - |
| 1778087110 | 13.33° C | 79% | 1008 hPa | 1.02 mm | - | - | - |
| 1778085496 | 17.78° C | 60% | 1006.7 hPa | 0 mm | - | - | - |
| 1778082722 | 19.44° C | 57% | 1006.5 hPa | 0 mm | - | - | - |
| 1778082230 | 19.44° C | 59% | 1006.8 hPa | 0 mm | - | - | - |
| 1778081667 | 19.44° C | 59% | 1006.8 hPa | 0 mm | - | - | - |
| 1778081139 | 19.44° C | 60% | 1006.7 hPa | 0 mm | - | - | - |
| 1778080641 | 19.44° C | 64% | 1006.8 hPa | 0 mm | - | - | - |
| 1778079556 | 17.78° C | 64% | 1006.6 hPa | 0 mm | - | - | - |
| 1778076760 | 18.89° C | 60% | 1006.9 hPa | 0 mm | - | - | - |
| 1778075726 | 19.44° C | 58% | 1006.8 hPa | 0 mm | - | - | - |
| 1778074637 | 20° C | 58% | 1006.7 hPa | 0 mm | - | - | - |
| 1778073653 | 20.56° C | 55% | 1006.8 hPa | 0 mm | - | - | - |
| 1778073068 | 21.11° C | 56% | 1006.8 hPa | 0 mm | - | - | - |
| 1778068896 | 20° C | 55% | 1007.4 hPa | 0 mm | - | - | - |
| 1778068391 | 20° C | 56% | 1007.5 hPa | 0 mm | - | - | - |
| 1778066169 | 20° C | 63% | 1007.8 hPa | 0 mm | - | - | - |
| 1778063498 | 18.33° C | 68% | 1008.4 hPa | 0 mm | - | - | - |
| 1778063003 | 17.22° C | 69% | 1008.5 hPa | 0 mm | - | - | - |
| 1778061443 | 16.67° C | 68% | 1008.5 hPa | 0 mm | - | - | - |
| 1778060902 | 17.22° C | 69% | 1008.7 hPa | 0 mm | - | - | - |
| 1778060390 | 16.67° C | 70% | 1008.6 hPa | 0 mm | - | - | - |
| 1778059802 | 16.67° C | 69% | 1008.6 hPa | 0 mm | - | - | - |
| 1778058696 | 16.67° C | 71% | 1008.7 hPa | 0 mm | - | - | - |
| 1778057577 | 16.67° C | 71% | 1008.7 hPa | 0 mm | - | - | - |
* Rain latest hour (hover to see other rain measurements)
** Current wind speed in m/s (hover to see current wind gust speed)